Mc Alester Regional Airport
KMLC : now visible

Aeroporto :











RITROVATECI SU...

 
LOGIN :

Iscrizione | Disclaimer

   EN    FR    IT 

 









Sommario :    VFR   VFR Marginale   IFR   IFR Intensivo   IFR Molto Intensivo
Visibilità : 
Base nubi : 
>= 8 km
>= 3000ft
5 / 8 km
1000 / 3000 ft
1500m / 5 km
500 / 1000 ft
800 / 1500m
200 / 500 ft
< 800m
< 200 ft
Simboli :   Temporali  Nebbia  Neve Forte  Precipitazioni Forti  Vento > 20 kt






- Altitudine del aeroporto : 770 ft


KMLC - Mc Alester Regional

ULTIMO METAR :
  • 040253Z AUTO 36011KT 6SM BR OVC007 04/02 A3013 RMK AO2 RAE42 SLP205 P0000 60001 T00390022 53010

METARs OBSOLETI :
  • 040153Z AUTO 01008KT 5SM -RA BR OVC008 04/02 A3012 RMK AO2 CIG 004V012 SLP199 P0001 T00390022
  • 040140Z AUTO 36009KT 5SM -RA BR BKN007 OVC012 04/02 A3012 RMK AO2 CIG 005V011 P0000 T00390022
  • 040128Z AUTO 01009KT 8SM -RA OVC010 04/02 A3011 RMK AO2 CIG 006V013 P0000 T00390022
  • 040053Z AUTO 01009KT 7SM -RA OVC007 04/02 A3010 RMK AO2 RAE2356B41 CIG 005V013 SLP195 P0000 T00390022

TAF KMLC
Valido dal 04 a 00 ore il 05 a 00 ore UTC


032322Z 0400/0424 36009KT 4SM -DZ BR OVC012
TEMPO 0400/0404 2SM -DZ BR BKN007
FM040400 36008KT 2SM -DZ BR OVC005
FM041400 01008KT 4SM -DZ BR OVC008
FM041700 01005KT P6SM OVC015



MetMap, La meteo Aeronautica in un colpo d'occhio ! - Copyright ORBIFLY Dicembre 2007 - Disclaimer

ORBIFLY MET'MAP TEAM :

Programmazione e sviluppo : Alexandra Zaïnal
Concezione : Baudouin d'Aumeries
Aiuto per la programmazione : Marc-Olivier Méhu
Supporto tecnico e logistico : Manuel Goepfert
Aiuto per la traduzione : Arnaldo La Scala

Contatto : metmap@orbifly.com




FONTI E CREDITI :

   NOAA       Earth
Advisory